sensor_id;sensor_type;location;lat;lon;timestamp;P1;durP1;ratioP1;P2;durP2;ratioP2
38034;SDS011;23841;48.524;1.342;2023-07-22T00:02:19;6.93;;;4.38;;
38034;SDS011;23841;48.524;1.342;2023-07-22T00:04:45;6.97;;;4.85;;
38034;SDS011;23841;48.524;1.342;2023-07-22T00:07:11;6.80;;;4.85;;
38034;SDS011;23841;48.524;1.342;2023-07-22T00:09:36;7.00;;;4.38;;
38034;SDS011;23841;48.524;1.342;2023-07-22T00:12:04;5.63;;;4.15;;
38034;SDS011;23841;48.524;1.342;2023-07-22T00:14:30;6.75;;;4.35;;
38034;SDS011;23841;48.524;1.342;2023-07-22T00:16:55;7.38;;;4.45;;
38034;SDS011;23841;48.524;1.342;2023-07-22T00:19:20;5.80;;;3.92;;
38034;SDS011;23841;48.524;1.342;2023-07-22T00:21:46;7.03;;;4.45;;
38034;SDS011;23841;48.524;1.342;2023-07-22T00:24:12;6.40;;;4.90;;
38034;SDS011;23841;48.524;1.342;2023-07-22T00:26:37;5.95;;;4.43;;
38034;SDS011;23841;48.524;1.342;2023-07-22T00:29:03;6.10;;;4.20;;
38034;SDS011;23841;48.524;1.342;2023-07-22T00:31:29;6.63;;;4.75;;
38034;SDS011;23841;48.524;1.342;2023-07-22T00:33:55;6.07;;;4.47;;
38034;SDS011;23841;48.524;1.342;2023-07-22T00:36:20;6.15;;;4.20;;
38034;SDS011;23841;48.524;1.342;2023-07-22T00:38:46;9.82;;;4.97;;
38034;SDS011;23841;48.524;1.342;2023-07-22T00:41:11;5.32;;;3.92;;
38034;SDS011;23841;48.524;1.342;2023-07-22T00:43:37;6.97;;;4.72;;
38034;SDS011;23841;48.524;1.342;2023-07-22T00:46:03;7.40;;;4.70;;
38034;SDS011;23841;48.524;1.342;2023-07-22T00:48:29;6.40;;;4.15;;
38034;SDS011;23841;48.524;1.342;2023-07-22T00:50:56;6.18;;;4.15;;
38034;SDS011;23841;48.524;1.342;2023-07-22T00:53:25;6.97;;;4.50;;
38034;SDS011;23841;48.524;1.342;2023-07-22T00:55:51;6.10;;;4.32;;
38034;SDS011;23841;48.524;1.342;2023-07-22T00:58:18;7.93;;;4.20;;
38034;SDS011;23841;48.524;1.342;2023-07-22T01:00:46;7.43;;;4.60;;
38034;SDS011;23841;48.524;1.342;2023-07-22T01:03:11;7.80;;;4.82;;
38034;SDS011;23841;48.524;1.342;2023-07-22T01:05:38;6.03;;;4.40;;
38034;SDS011;23841;48.524;1.342;2023-07-22T01:08:04;7.35;;;4.85;;
38034;SDS011;23841;48.524;1.342;2023-07-22T01:10:30;5.93;;;4.20;;
38034;SDS011;23841;48.524;1.342;2023-07-22T01:12:56;6.25;;;4.15;;
38034;SDS011;23841;48.524;1.342;2023-07-22T01:15:23;5.97;;;4.07;;
38034;SDS011;23841;48.524;1.342;2023-07-22T01:17:50;6.35;;;4.22;;
38034;SDS011;23841;48.524;1.342;2023-07-22T01:20:16;6.30;;;4.15;;
38034;SDS011;23841;48.524;1.342;2023-07-22T01:22:49;6.55;;;4.80;;
38034;SDS011;23841;48.524;1.342;2023-07-22T01:25:17;6.03;;;4.15;;
38034;SDS011;23841;48.524;1.342;2023-07-22T01:27:44;6.97;;;4.10;;
38034;SDS011;23841;48.524;1.342;2023-07-22T01:30:10;7.95;;;4.20;;
38034;SDS011;23841;48.524;1.342;2023-07-22T01:32:35;6.90;;;4.57;;
38034;SDS011;23841;48.524;1.342;2023-07-22T01:35:01;5.97;;;4.65;;
38034;SDS011;23841;48.524;1.342;2023-07-22T01:37:26;6.88;;;4.13;;
38034;SDS011;23841;48.524;1.342;2023-07-22T01:39:51;6.45;;;4.50;;
38034;SDS011;23841;48.524;1.342;2023-07-22T01:42:18;4.88;;;3.75;;
38034;SDS011;23841;48.524;1.342;2023-07-22T01:44:43;5.43;;;4.05;;
38034;SDS011;23841;48.524;1.342;2023-07-22T01:47:09;6.00;;;4.13;;
38034;SDS011;23841;48.524;1.342;2023-07-22T01:49:34;5.85;;;4.13;;
38034;SDS011;23841;48.524;1.342;2023-07-22T01:51:59;6.20;;;4.28;;
38034;SDS011;23841;48.524;1.342;2023-07-22T01:54:25;7.20;;;4.63;;
38034;SDS011;23841;48.524;1.342;2023-07-22T01:56:51;6.00;;;4.00;;
38034;SDS011;23841;48.524;1.342;2023-07-22T01:59:16;6.30;;;4.25;;
38034;SDS011;23841;48.524;1.342;2023-07-22T02:01:42;5.68;;;3.92;;
38034;SDS011;23841;48.524;1.342;2023-07-22T02:04:07;9.07;;;4.68;;
38034;SDS011;23841;48.524;1.342;2023-07-22T02:06:33;6.22;;;4.55;;
38034;SDS011;23841;48.524;1.342;2023-07-22T02:08:59;6.63;;;4.07;;
38034;SDS011;23841;48.524;1.342;2023-07-22T02:11:25;6.35;;;3.92;;
38034;SDS011;23841;48.524;1.342;2023-07-22T02:13:50;10.45;;;4.45;;
38034;SDS011;23841;48.524;1.342;2023-07-22T02:16:16;5.90;;;4.50;;
38034;SDS011;23841;48.524;1.342;2023-07-22T02:18:41;5.50;;;4.10;;
38034;SDS011;23841;48.524;1.342;2023-07-22T02:21:07;6.47;;;3.78;;
38034;SDS011;23841;48.524;1.342;2023-07-22T02:23:32;6.20;;;3.83;;
38034;SDS011;23841;48.524;1.342;2023-07-22T02:25:58;7.28;;;4.13;;
38034;SDS011;23841;48.524;1.342;2023-07-22T02:28:25;7.35;;;4.07;;
38034;SDS011;23841;48.524;1.342;2023-07-22T02:30:51;6.43;;;4.28;;
38034;SDS011;23841;48.524;1.342;2023-07-22T02:33:17;5.93;;;4.43;;
38034;SDS011;23841;48.524;1.342;2023-07-22T02:35:44;6.70;;;4.22;;
38034;SDS011;23841;48.524;1.342;2023-07-22T02:38:10;6.13;;;4.25;;
38034;SDS011;23841;48.524;1.342;2023-07-22T02:40:38;7.05;;;4.32;;
38034;SDS011;23841;48.524;1.342;2023-07-22T02:43:04;6.22;;;4.22;;
38034;SDS011;23841;48.524;1.342;2023-07-22T02:45:31;5.40;;;4.13;;
38034;SDS011;23841;48.524;1.342;2023-07-22T02:48:01;5.25;;;3.90;;
38034;SDS011;23841;48.524;1.342;2023-07-22T02:50:26;6.72;;;4.15;;
38034;SDS011;23841;48.524;1.342;2023-07-22T02:52:52;5.97;;;4.25;;
38034;SDS011;23841;48.524;1.342;2023-07-22T02:55:17;6.65;;;4.10;;
38034;SDS011;23841;48.524;1.342;2023-07-22T02:57:43;7.03;;;3.95;;
38034;SDS011;23841;48.524;1.342;2023-07-22T03:00:11;5.60;;;4.00;;
38034;SDS011;23841;48.524;1.342;2023-07-22T03:02:40;6.53;;;4.60;;
38034;SDS011;23841;48.524;1.342;2023-07-22T03:05:08;11.38;;;4.82;;
38034;SDS011;23841;48.524;1.342;2023-07-22T03:07:35;6.20;;;4.80;;
38034;SDS011;23841;48.524;1.342;2023-07-22T03:10:01;6.13;;;4.03;;
38034;SDS011;23841;48.524;1.342;2023-07-22T03:12:27;5.45;;;3.78;;
38034;SDS011;23841;48.524;1.342;2023-07-22T03:14:52;6.60;;;4.10;;
38034;SDS011;23841;48.524;1.342;2023-07-22T03:17:18;5.50;;;4.47;;
38034;SDS011;23841;48.524;1.342;2023-07-22T03:19:44;7.13;;;4.05;;
38034;SDS011;23841;48.524;1.342;2023-07-22T03:22:10;5.88;;;4.47;;
38034;SDS011;23841;48.524;1.342;2023-07-22T03:24:38;6.90;;;4.50;;
38034;SDS011;23841;48.524;1.342;2023-07-22T03:27:03;5.82;;;4.22;;
38034;SDS011;23841;48.524;1.342;2023-07-22T03:29:29;6.00;;;4.30;;
38034;SDS011;23841;48.524;1.342;2023-07-22T03:31:54;6.10;;;4.00;;
38034;SDS011;23841;48.524;1.342;2023-07-22T03:34:22;5.82;;;4.20;;
38034;SDS011;23841;48.524;1.342;2023-07-22T03:36:48;6.32;;;4.10;;
38034;SDS011;23841;48.524;1.342;2023-07-22T03:39:14;5.80;;;4.05;;
38034;SDS011;23841;48.524;1.342;2023-07-22T03:41:39;6.63;;;4.13;;
38034;SDS011;23841;48.524;1.342;2023-07-22T03:44:05;6.45;;;4.20;;
38034;SDS011;23841;48.524;1.342;2023-07-22T03:46:30;6.18;;;3.95;;
38034;SDS011;23841;48.524;1.342;2023-07-22T03:48:56;5.57;;;3.67;;
38034;SDS011;23841;48.524;1.342;2023-07-22T03:51:21;7.55;;;4.53;;
38034;SDS011;23841;48.524;1.342;2023-07-22T03:53:47;5.13;;;3.85;;
38034;SDS011;23841;48.524;1.342;2023-07-22T03:56:12;7.50;;;4.15;;
38034;SDS011;23841;48.524;1.342;2023-07-22T03:58:37;5.90;;;4.30;;
38034;SDS011;23841;48.524;1.342;2023-07-22T04:01:03;7.13;;;4.10;;
38034;SDS011;23841;48.524;1.342;2023-07-22T04:03:28;5.32;;;3.88;;
38034;SDS011;23841;48.524;1.342;2023-07-22T04:05:57;6.50;;;3.88;;
38034;SDS011;23841;48.524;1.342;2023-07-22T04:08:23;13.43;;;5.32;;
38034;SDS011;23841;48.524;1.342;2023-07-22T04:10:54;5.05;;;3.63;;
38034;SDS011;23841;48.524;1.342;2023-07-22T04:13:21;5.85;;;4.13;;
38034;SDS011;23841;48.524;1.342;2023-07-22T04:15:48;5.32;;;3.97;;
38034;SDS011;23841;48.524;1.342;2023-07-22T04:18:17;5.90;;;4.28;;
38034;SDS011;23841;48.524;1.342;2023-07-22T04:20:43;5.50;;;4.03;;
38034;SDS011;23841;48.524;1.342;2023-07-22T04:23:08;6.85;;;3.95;;
38034;SDS011;23841;48.524;1.342;2023-07-22T04:25:38;6.30;;;4.30;;
38034;SDS011;23841;48.524;1.342;2023-07-22T04:28:07;4.72;;;3.40;;
38034;SDS011;23841;48.524;1.342;2023-07-22T04:30:33;4.78;;;4.00;;
38034;SDS011;23841;48.524;1.342;2023-07-22T04:33:02;7.43;;;3.88;;
38034;SDS011;23841;48.524;1.342;2023-07-22T04:35:33;6.55;;;4.03;;
38034;SDS011;23841;48.524;1.342;2023-07-22T04:37:59;5.78;;;4.05;;
38034;SDS011;23841;48.524;1.342;2023-07-22T04:40:24;5.00;;;3.70;;
38034;SDS011;23841;48.524;1.342;2023-07-22T04:42:50;6.53;;;4.38;;
38034;SDS011;23841;48.524;1.342;2023-07-22T04:45:16;6.28;;;4.38;;
38034;SDS011;23841;48.524;1.342;2023-07-22T04:47:43;6.13;;;4.45;;
38034;SDS011;23841;48.524;1.342;2023-07-22T04:50:11;6.10;;;3.80;;
38034;SDS011;23841;48.524;1.342;2023-07-22T04:52:38;6.50;;;3.80;;
38034;SDS011;23841;48.524;1.342;2023-07-22T04:55:03;5.90;;;4.03;;
38034;SDS011;23841;48.524;1.342;2023-07-22T04:57:41;5.50;;;3.97;;
38034;SDS011;23841;48.524;1.342;2023-07-22T05:00:12;6.43;;;4.28;;
38034;SDS011;23841;48.524;1.342;2023-07-22T05:02:39;6.80;;;3.97;;
38034;SDS011;23841;48.524;1.342;2023-07-22T05:05:05;6.40;;;4.10;;
38034;SDS011;23841;48.524;1.342;2023-07-22T05:07:30;6.55;;;4.25;;
38034;SDS011;23841;48.524;1.342;2023-07-22T05:09:56;5.13;;;3.78;;
38034;SDS011;23841;48.524;1.342;2023-07-22T05:12:21;5.75;;;4.20;;
38034;SDS011;23841;48.524;1.342;2023-07-22T05:14:47;7.07;;;4.13;;
38034;SDS011;23841;48.524;1.342;2023-07-22T05:17:13;7.35;;;3.85;;
38034;SDS011;23841;48.524;1.342;2023-07-22T05:19:39;6.15;;;4.47;;
38034;SDS011;23841;48.524;1.342;2023-07-22T05:22:05;7.18;;;4.50;;
38034;SDS011;23841;48.524;1.342;2023-07-22T05:24:30;7.28;;;4.78;;
38034;SDS011;23841;48.524;1.342;2023-07-22T05:26:56;5.85;;;4.75;;
38034;SDS011;23841;48.524;1.342;2023-07-22T05:29:21;6.68;;;4.32;;
38034;SDS011;23841;48.524;1.342;2023-07-22T05:31:47;5.70;;;4.40;;
38034;SDS011;23841;48.524;1.342;2023-07-22T05:34:12;6.10;;;4.00;;
38034;SDS011;23841;48.524;1.342;2023-07-22T05:36:37;6.15;;;4.55;;
38034;SDS011;23841;48.524;1.342;2023-07-22T05:39:03;5.03;;;3.88;;
38034;SDS011;23841;48.524;1.342;2023-07-22T05:41:29;5.78;;;4.32;;
38034;SDS011;23841;48.524;1.342;2023-07-22T05:43:55;7.60;;;4.43;;
38034;SDS011;23841;48.524;1.342;2023-07-22T05:46:20;7.53;;;4.90;;
38034;SDS011;23841;48.524;1.342;2023-07-22T05:48:46;6.90;;;4.90;;
38034;SDS011;23841;48.524;1.342;2023-07-22T05:51:11;6.32;;;4.53;;
38034;SDS011;23841;48.524;1.342;2023-07-22T05:53:36;7.13;;;4.70;;
38034;SDS011;23841;48.524;1.342;2023-07-22T05:56:02;6.57;;;4.35;;
38034;SDS011;23841;48.524;1.342;2023-07-22T05:58:27;6.45;;;4.35;;
38034;SDS011;23841;48.524;1.342;2023-07-22T06:00:53;7.80;;;4.30;;
38034;SDS011;23841;48.524;1.342;2023-07-22T06:03:19;6.60;;;4.32;;
38034;SDS011;23841;48.524;1.342;2023-07-22T06:05:46;6.60;;;4.68;;
38034;SDS011;23841;48.524;1.342;2023-07-22T06:08:11;6.53;;;4.47;;
38034;SDS011;23841;48.524;1.342;2023-07-22T06:10:37;5.30;;;4.25;;
38034;SDS011;23841;48.524;1.342;2023-07-22T06:13:03;5.65;;;4.03;;
38034;SDS011;23841;48.524;1.342;2023-07-22T06:15:32;6.35;;;4.35;;
38034;SDS011;23841;48.524;1.342;2023-07-22T06:17:58;6.40;;;4.45;;
38034;SDS011;23841;48.524;1.342;2023-07-22T06:20:25;6.85;;;4.43;;
38034;SDS011;23841;48.524;1.342;2023-07-22T06:22:50;7.70;;;5.18;;
38034;SDS011;23841;48.524;1.342;2023-07-22T06:25:16;6.35;;;4.28;;
38034;SDS011;23841;48.524;1.342;2023-07-22T06:27:41;5.63;;;4.15;;
38034;SDS011;23841;48.524;1.342;2023-07-22T06:30:07;6.28;;;4.68;;
38034;SDS011;23841;48.524;1.342;2023-07-22T06:32:33;7.20;;;3.90;;
38034;SDS011;23841;48.524;1.342;2023-07-22T06:34:59;5.32;;;4.47;;
38034;SDS011;23841;48.524;1.342;2023-07-22T06:37:25;5.13;;;3.78;;
38034;SDS011;23841;48.524;1.342;2023-07-22T06:39:51;7.07;;;4.47;;
38034;SDS011;23841;48.524;1.342;2023-07-22T06:42:16;5.75;;;4.20;;
38034;SDS011;23841;48.524;1.342;2023-07-22T06:44:42;7.75;;;4.28;;
38034;SDS011;23841;48.524;1.342;2023-07-22T06:47:08;5.75;;;4.60;;
38034;SDS011;23841;48.524;1.342;2023-07-22T06:49:33;6.45;;;3.80;;
38034;SDS011;23841;48.524;1.342;2023-07-22T06:51:59;6.43;;;4.07;;
38034;SDS011;23841;48.524;1.342;2023-07-22T06:54:24;5.25;;;3.92;;
38034;SDS011;23841;48.524;1.342;2023-07-22T06:56:50;5.68;;;3.92;;
38034;SDS011;23841;48.524;1.342;2023-07-22T06:59:15;6.50;;;4.13;;
38034;SDS011;23841;48.524;1.342;2023-07-22T07:01:40;6.57;;;4.00;;
38034;SDS011;23841;48.524;1.342;2023-07-22T07:04:06;5.53;;;4.10;;
38034;SDS011;23841;48.524;1.342;2023-07-22T07:06:31;5.55;;;3.88;;
38034;SDS011;23841;48.524;1.342;2023-07-22T07:08:59;5.75;;;4.05;;
38034;SDS011;23841;48.524;1.342;2023-07-22T07:11:25;6.07;;;4.15;;
38034;SDS011;23841;48.524;1.342;2023-07-22T07:39:29;8.52;;;4.55;;
38034;SDS011;23841;48.524;1.342;2023-07-22T07:41:55;8.07;;;4.45;;
38034;SDS011;23841;48.524;1.342;2023-07-22T07:44:20;13.23;;;4.22;;
38034;SDS011;23841;48.524;1.342;2023-07-22T07:46:46;14.30;;;4.55;;
38034;SDS011;23841;48.524;1.342;2023-07-22T07:49:11;11.80;;;4.05;;
38034;SDS011;23841;48.524;1.342;2023-07-22T07:51:36;8.80;;;3.67;;
38034;SDS011;23841;48.524;1.342;2023-07-22T07:54:02;8.57;;;4.05;;
38034;SDS011;23841;48.524;1.342;2023-07-22T07:56:29;7.57;;;4.30;;
38034;SDS011;23841;48.524;1.342;2023-07-22T07:58:54;8.45;;;3.78;;
38034;SDS011;23841;48.524;1.342;2023-07-22T08:01:20;8.02;;;4.53;;
38034;SDS011;23841;48.524;1.342;2023-07-22T08:03:46;7.00;;;3.67;;
38034;SDS011;23841;48.524;1.342;2023-07-22T08:06:12;8.85;;;4.20;;
38034;SDS011;23841;48.524;1.342;2023-07-22T08:08:38;6.13;;;4.10;;
38034;SDS011;23841;48.524;1.342;2023-07-22T08:11:09;7.65;;;4.28;;
38034;SDS011;23841;48.524;1.342;2023-07-22T08:13:39;6.50;;;3.80;;
38034;SDS011;23841;48.524;1.342;2023-07-22T08:16:06;7.70;;;3.97;;
38034;SDS011;23841;48.524;1.342;2023-07-22T08:18:33;5.47;;;3.70;;
38034;SDS011;23841;48.524;1.342;2023-07-22T08:20:59;5.50;;;3.70;;
38034;SDS011;23841;48.524;1.342;2023-07-22T08:23:24;6.90;;;4.00;;
38034;SDS011;23841;48.524;1.342;2023-07-22T08:25:50;5.38;;;3.63;;
38034;SDS011;23841;48.524;1.342;2023-07-22T08:28:16;7.35;;;3.53;;
38034;SDS011;23841;48.524;1.342;2023-07-22T08:30:42;9.48;;;3.97;;
38034;SDS011;23841;48.524;1.342;2023-07-22T08:33:08;5.75;;;4.00;;
38034;SDS011;23841;48.524;1.342;2023-07-22T08:35:36;6.90;;;3.78;;
38034;SDS011;23841;48.524;1.342;2023-07-22T08:38:02;5.03;;;3.40;;
38034;SDS011;23841;48.524;1.342;2023-07-22T08:40:38;5.82;;;3.80;;
38034;SDS011;23841;48.524;1.342;2023-07-22T08:43:09;6.45;;;3.58;;
38034;SDS011;23841;48.524;1.342;2023-07-22T08:45:36;7.03;;;3.45;;
38034;SDS011;23841;48.524;1.342;2023-07-22T08:48:04;5.47;;;3.25;;
38034;SDS011;23841;48.524;1.342;2023-07-22T08:50:46;6.03;;;3.30;;
38034;SDS011;23841;48.524;1.342;2023-07-22T08:53:16;5.28;;;3.38;;
38034;SDS011;23841;48.524;1.342;2023-07-22T08:55:44;7.63;;;3.25;;
38034;SDS011;23841;48.524;1.342;2023-07-22T08:58:10;5.00;;;3.70;;
38034;SDS011;23841;48.524;1.342;2023-07-22T09:00:39;6.60;;;3.80;;
38034;SDS011;23841;48.524;1.342;2023-07-22T09:03:05;4.68;;;3.10;;
38034;SDS011;23841;48.524;1.342;2023-07-22T09:05:32;4.97;;;3.05;;
38034;SDS011;23841;48.524;1.342;2023-07-22T09:07:58;5.45;;;3.90;;
38034;SDS011;23841;48.524;1.342;2023-07-22T09:10:26;4.63;;;3.00;;
38034;SDS011;23841;48.524;1.342;2023-07-22T09:12:52;4.95;;;3.30;;
38034;SDS011;23841;48.524;1.342;2023-07-22T09:15:19;5.22;;;3.05;;
38034;SDS011;23841;48.524;1.342;2023-07-22T09:17:46;4.50;;;3.50;;
38034;SDS011;23841;48.524;1.342;2023-07-22T09:20:12;4.53;;;3.25;;
38034;SDS011;23841;48.524;1.342;2023-07-22T09:22:48;4.70;;;3.13;;
38034;SDS011;23841;48.524;1.342;2023-07-22T09:25:19;5.47;;;3.30;;
38034;SDS011;23841;48.524;1.342;2023-07-22T09:27:48;5.30;;;3.00;;
38034;SDS011;23841;48.524;1.342;2023-07-22T09:32:49;4.93;;;3.10;;
38034;SDS011;23841;48.524;1.342;2023-07-22T09:35:16;5.60;;;3.20;;
38034;SDS011;23841;48.524;1.342;2023-07-22T09:37:42;4.80;;;2.92;;
38034;SDS011;23841;48.524;1.342;2023-07-22T09:40:18;5.65;;;2.97;;
38034;SDS011;23841;48.524;1.342;2023-07-22T09:42:45;4.70;;;3.15;;
38034;SDS011;23841;48.524;1.342;2023-07-22T09:45:11;5.13;;;3.35;;
38034;SDS011;23841;48.524;1.342;2023-07-22T09:47:43;4.45;;;3.05;;
38034;SDS011;23841;48.524;1.342;2023-07-22T09:50:14;4.20;;;2.83;;
38034;SDS011;23841;48.524;1.342;2023-07-22T09:52:56;4.43;;;3.40;;
38034;SDS011;23841;48.524;1.342;2023-07-22T09:55:24;4.93;;;2.83;;
38034;SDS011;23841;48.524;1.342;2023-07-22T09:57:54;4.28;;;2.90;;
38034;SDS011;23841;48.524;1.342;2023-07-22T10:00:23;4.72;;;3.05;;
38034;SDS011;23841;48.524;1.342;2023-07-22T10:02:51;4.95;;;3.05;;
38034;SDS011;23841;48.524;1.342;2023-07-22T10:05:20;4.20;;;2.97;;
38034;SDS011;23841;48.524;1.342;2023-07-22T10:07:53;4.63;;;2.80;;
38034;SDS011;23841;48.524;1.342;2023-07-22T10:10:20;4.60;;;2.88;;
38034;SDS011;23841;48.524;1.342;2023-07-22T10:12:50;5.78;;;3.47;;
38034;SDS011;23841;48.524;1.342;2023-07-22T10:15:16;4.00;;;2.58;;
38034;SDS011;23841;48.524;1.342;2023-07-22T10:17:44;3.53;;;2.50;;
38034;SDS011;23841;48.524;1.342;2023-07-22T10:20:11;5.30;;;3.15;;
38034;SDS011;23841;48.524;1.342;2023-07-22T10:22:44;5.15;;;2.85;;
38034;SDS011;23841;48.524;1.342;2023-07-22T10:25:11;7.05;;;2.88;;
38034;SDS011;23841;48.524;1.342;2023-07-22T10:27:38;4.75;;;3.00;;
38034;SDS011;23841;48.524;1.342;2023-07-22T10:30:06;4.72;;;2.70;;
38034;SDS011;23841;48.524;1.342;2023-07-22T10:32:33;4.40;;;2.67;;
38034;SDS011;23841;48.524;1.342;2023-07-22T10:35:09;5.18;;;2.70;;
38034;SDS011;23841;48.524;1.342;2023-07-22T10:37:37;3.83;;;2.63;;
38034;SDS011;23841;48.524;1.342;2023-07-22T10:42:43;5.72;;;3.35;;
38034;SDS011;23841;48.524;1.342;2023-07-22T10:45:29;4.95;;;2.63;;
38034;SDS011;23841;48.524;1.342;2023-07-22T10:48:05;3.83;;;2.83;;
38034;SDS011;23841;48.524;1.342;2023-07-22T10:50:44;3.42;;;2.40;;
38034;SDS011;23841;48.524;1.342;2023-07-22T10:53:19;5.13;;;2.60;;
38034;SDS011;23841;48.524;1.342;2023-07-22T10:56:08;4.88;;;3.00;;
38034;SDS011;23841;48.524;1.342;2023-07-22T11:14:29;4.28;;;2.55;;
38034;SDS011;23841;48.524;1.342;2023-07-22T11:16:58;4.47;;;2.63;;
38034;SDS011;23841;48.524;1.342;2023-07-22T11:19:26;5.63;;;2.63;;
38034;SDS011;23841;48.524;1.342;2023-07-22T11:21:52;5.03;;;2.45;;
38034;SDS011;23841;48.524;1.342;2023-07-22T11:24:19;4.43;;;2.75;;
38034;SDS011;23841;48.524;1.342;2023-07-22T11:26:45;4.80;;;2.40;;
38034;SDS011;23841;48.524;1.342;2023-07-22T11:29:12;4.00;;;2.60;;
38034;SDS011;23841;48.524;1.342;2023-07-22T11:31:39;4.25;;;2.60;;
38034;SDS011;23841;48.524;1.342;2023-07-22T11:34:08;3.83;;;2.50;;
38034;SDS011;23841;48.524;1.342;2023-07-22T11:36:34;4.13;;;2.83;;
38034;SDS011;23841;48.524;1.342;2023-07-22T11:39:01;3.72;;;2.55;;
38034;SDS011;23841;48.524;1.342;2023-07-22T11:41:28;3.78;;;2.67;;
38034;SDS011;23841;48.524;1.342;2023-07-22T11:43:58;4.35;;;2.60;;
38034;SDS011;23841;48.524;1.342;2023-07-22T11:46:25;4.10;;;2.78;;
38034;SDS011;23841;48.524;1.342;2023-07-22T11:48:55;3.72;;;2.40;;
38034;SDS011;23841;48.524;1.342;2023-07-22T11:51:21;4.28;;;2.58;;
38034;SDS011;23841;48.524;1.342;2023-07-22T11:53:49;5.13;;;2.50;;
38034;SDS011;23841;48.524;1.342;2023-07-22T11:56:48;3.97;;;2.72;;
38034;SDS011;23841;48.524;1.342;2023-07-22T11:59:06;4.78;;;2.45;;
38034;SDS011;23841;48.524;1.342;2023-07-22T12:01:33;3.70;;;2.28;;
38034;SDS011;23841;48.524;1.342;2023-07-22T12:03:59;4.20;;;2.63;;
38034;SDS011;23841;48.524;1.342;2023-07-22T12:06:25;2.80;;;2.20;;
38034;SDS011;23841;48.524;1.342;2023-07-22T12:08:52;4.38;;;2.50;;
38034;SDS011;23841;48.524;1.342;2023-07-22T12:11:19;4.55;;;2.67;;
38034;SDS011;23841;48.524;1.342;2023-07-22T12:13:45;4.72;;;2.60;;
38034;SDS011;23841;48.524;1.342;2023-07-22T12:16:20;5.25;;;2.50;;
38034;SDS011;23841;48.524;1.342;2023-07-22T12:18:49;5.65;;;2.72;;
38034;SDS011;23841;48.524;1.342;2023-07-22T12:21:14;3.47;;;2.35;;
38034;SDS011;23841;48.524;1.342;2023-07-22T12:23:40;4.05;;;2.40;;
38034;SDS011;23841;48.524;1.342;2023-07-22T12:26:07;4.72;;;2.75;;
38034;SDS011;23841;48.524;1.342;2023-07-22T12:28:33;5.53;;;2.58;;
38034;SDS011;23841;48.524;1.342;2023-07-22T12:30:58;4.13;;;2.53;;
38034;SDS011;23841;48.524;1.342;2023-07-22T12:33:24;5.32;;;2.63;;
38034;SDS011;23841;48.524;1.342;2023-07-22T12:35:50;3.28;;;2.40;;
38034;SDS011;23841;48.524;1.342;2023-07-22T12:38:16;3.65;;;2.55;;
38034;SDS011;23841;48.524;1.342;2023-07-22T12:40:42;3.35;;;2.13;;
38034;SDS011;23841;48.524;1.342;2023-07-22T12:43:07;3.80;;;2.47;;
38034;SDS011;23841;48.524;1.342;2023-07-22T12:45:33;5.15;;;2.50;;
38034;SDS011;23841;48.524;1.342;2023-07-22T12:47:58;4.95;;;2.60;;
38034;SDS011;23841;48.524;1.342;2023-07-22T12:50:24;3.75;;;2.78;;
38034;SDS011;23841;48.524;1.342;2023-07-22T12:52:50;4.90;;;2.40;;
38034;SDS011;23841;48.524;1.342;2023-07-22T12:55:15;4.40;;;2.60;;
38034;SDS011;23841;48.524;1.342;2023-07-22T12:57:41;4.03;;;2.75;;
38034;SDS011;23841;48.524;1.342;2023-07-22T13:00:07;4.05;;;2.40;;
38034;SDS011;23841;48.524;1.342;2023-07-22T13:02:37;4.38;;;2.60;;
38034;SDS011;23841;48.524;1.342;2023-07-22T13:05:03;4.60;;;2.60;;
38034;SDS011;23841;48.524;1.342;2023-07-22T13:07:31;5.47;;;2.80;;
38034;SDS011;23841;48.524;1.342;2023-07-22T13:09:57;5.18;;;2.78;;
38034;SDS011;23841;48.524;1.342;2023-07-22T13:12:24;3.80;;;2.38;;
38034;SDS011;23841;48.524;1.342;2023-07-22T13:14:49;4.00;;;2.38;;
38034;SDS011;23841;48.524;1.342;2023-07-22T13:17:15;4.55;;;2.47;;
38034;SDS011;23841;48.524;1.342;2023-07-22T13:19:40;3.67;;;2.53;;
38034;SDS011;23841;48.524;1.342;2023-07-22T13:22:06;4.03;;;2.80;;
38034;SDS011;23841;48.524;1.342;2023-07-22T13:24:32;3.80;;;2.40;;
38034;SDS011;23841;48.524;1.342;2023-07-22T13:26:57;4.55;;;2.28;;
38034;SDS011;23841;48.524;1.342;2023-07-22T13:29:23;3.80;;;2.55;;
38034;SDS011;23841;48.524;1.342;2023-07-22T13:31:49;3.85;;;2.20;;
38034;SDS011;23841;48.524;1.342;2023-07-22T13:34:16;3.65;;;2.35;;
38034;SDS011;23841;48.524;1.342;2023-07-22T13:36:41;5.47;;;3.45;;
38034;SDS011;23841;48.524;1.342;2023-07-22T13:39:07;3.60;;;2.42;;
38034;SDS011;23841;48.524;1.342;2023-07-22T13:41:32;4.13;;;2.58;;
38034;SDS011;23841;48.524;1.342;2023-07-22T13:43:58;6.40;;;2.50;;
38034;SDS011;23841;48.524;1.342;2023-07-22T13:46:23;3.85;;;2.22;;
38034;SDS011;23841;48.524;1.342;2023-07-22T13:48:49;5.55;;;2.55;;
38034;SDS011;23841;48.524;1.342;2023-07-22T13:51:14;3.75;;;2.53;;
38034;SDS011;23841;48.524;1.342;2023-07-22T13:53:40;4.47;;;2.60;;
38034;SDS011;23841;48.524;1.342;2023-07-22T13:56:05;3.67;;;2.45;;
38034;SDS011;23841;48.524;1.342;2023-07-22T13:58:32;4.75;;;2.97;;
38034;SDS011;23841;48.524;1.342;2023-07-22T14:00:57;4.30;;;2.78;;
38034;SDS011;23841;48.524;1.342;2023-07-22T14:03:23;7.60;;;3.10;;
38034;SDS011;23841;48.524;1.342;2023-07-22T14:05:48;4.30;;;2.30;;
38034;SDS011;23841;48.524;1.342;2023-07-22T14:08:14;4.47;;;2.70;;
38034;SDS011;23841;48.524;1.342;2023-07-22T14:10:39;4.18;;;2.60;;
38034;SDS011;23841;48.524;1.342;2023-07-22T14:13:05;5.70;;;2.47;;
38034;SDS011;23841;48.524;1.342;2023-07-22T14:15:31;4.25;;;2.42;;
38034;SDS011;23841;48.524;1.342;2023-07-22T14:17:56;4.40;;;2.75;;
38034;SDS011;23841;48.524;1.342;2023-07-22T14:20:22;4.57;;;2.53;;
38034;SDS011;23841;48.524;1.342;2023-07-22T14:22:47;4.30;;;2.63;;
38034;SDS011;23841;48.524;1.342;2023-07-22T14:25:15;3.90;;;2.50;;
38034;SDS011;23841;48.524;1.342;2023-07-22T14:27:41;5.03;;;2.55;;
38034;SDS011;23841;48.524;1.342;2023-07-22T14:30:07;3.80;;;2.55;;
38034;SDS011;23841;48.524;1.342;2023-07-22T14:32:33;3.50;;;2.30;;
38034;SDS011;23841;48.524;1.342;2023-07-22T14:34:58;4.50;;;2.67;;
38034;SDS011;23841;48.524;1.342;2023-07-22T14:37:23;3.53;;;2.33;;
38034;SDS011;23841;48.524;1.342;2023-07-22T14:39:50;3.50;;;2.38;;
38034;SDS011;23841;48.524;1.342;2023-07-22T14:42:15;4.65;;;2.90;;
38034;SDS011;23841;48.524;1.342;2023-07-22T14:44:41;4.60;;;3.10;;
38034;SDS011;23841;48.524;1.342;2023-07-22T14:47:06;4.45;;;2.72;;
38034;SDS011;23841;48.524;1.342;2023-07-22T14:49:32;3.80;;;2.40;;
38034;SDS011;23841;48.524;1.342;2023-07-22T14:51:57;3.85;;;2.63;;
38034;SDS011;23841;48.524;1.342;2023-07-22T14:54:22;3.72;;;2.50;;
38034;SDS011;23841;48.524;1.342;2023-07-22T14:56:48;5.30;;;2.78;;
38034;SDS011;23841;48.524;1.342;2023-07-22T14:59:14;3.45;;;2.25;;
38034;SDS011;23841;48.524;1.342;2023-07-22T15:01:41;3.92;;;2.58;;
38034;SDS011;23841;48.524;1.342;2023-07-22T15:04:09;3.95;;;2.35;;
38034;SDS011;23841;48.524;1.342;2023-07-22T15:06:34;3.63;;;2.58;;
38034;SDS011;23841;48.524;1.342;2023-07-22T15:09:00;3.70;;;2.50;;
38034;SDS011;23841;48.524;1.342;2023-07-22T15:11:26;4.35;;;2.78;;
38034;SDS011;23841;48.524;1.342;2023-07-22T15:13:52;3.70;;;2.17;;
38034;SDS011;23841;48.524;1.342;2023-07-22T15:16:17;4.95;;;2.60;;
38034;SDS011;23841;48.524;1.342;2023-07-22T15:18:43;3.63;;;2.83;;
38034;SDS011;23841;48.524;1.342;2023-07-22T15:21:09;3.92;;;2.50;;
38034;SDS011;23841;48.524;1.342;2023-07-22T15:23:34;4.30;;;2.40;;
38034;SDS011;23841;48.524;1.342;2023-07-22T15:26:00;4.10;;;2.47;;
38034;SDS011;23841;48.524;1.342;2023-07-22T15:28:26;3.25;;;2.22;;
38034;SDS011;23841;48.524;1.342;2023-07-22T15:30:55;3.83;;;2.30;;
38034;SDS011;23841;48.524;1.342;2023-07-22T15:33:20;3.35;;;2.30;;